Waco, TX (76708)

2:32 AM CDT on September 05, 2015 (GMT -0500)
Greenleaf Peninsula | | Change Station
CLOSE
Current Station
Personal Weather Station
Location: Waco, TX
Elevation: 580 ft
Nearby Weather Stations

Elev 580 ft 31.56 °N, 97.20 °W | Updated 2 minutes ago

Clear
Clear
80.4 °F
Feels Like 85 °F
N
4.0
Wind Variable Wind from SE
Gusts 11.0 mph

Today
High -- | Low -- °F
--% Chance of Precip.
Yesterday
High -- | Low -- °F
Precip. -- in
7:06 AM 7:47 PM
Waning Gibbous, 51% visible
Pressure 29.92 in
Visibility 10.0 miles
Clouds Clear
Heat Index 85 °F
Dew Point 74 °F
Humidity 82%
Rainfall 0.00 in
Snow Depth Not available.
UV 0 out of 12
Pollen 9.20 out of 12
Air Quality Not available.
Flu Activity Not available.
METAR KACT 050651Z 17013KT 10SM CLR 27/22 A2995 RMK AO2 SLP131 T02720222
Pressure 29.92 in
Visibility 10.0 miles
Clouds Clear
Heat Index 85 °F
Dew Point 74 °F
Humidity 82%
Rainfall 0.00 in
Snow Depth Not available.
UV 0 out of 12
Pollen 9.20 out of 12
Air Quality Not available.
Flu Activity Not available.
METAR KACT 050651Z 17013KT 10SM CLR 27/22 A2995 RMK AO2 SLP131 T02720222

10-Day Weather Forecast

×

Almanac

Astronomy

Sep. 05, 2015 Rise Set
Actual Time
Civil Twilight
Nautical Twilight
Astronomical Twilight
Moon
Length of Visible Light
Length of Day
Tomorrow will be .
, % of the Moon is Illuminated

Today's Extremes

State Highs State Lows

Community

WunderPhotos

Upload Photos

1,852,436 photos uploaded!

WunderBlogs® & News

Nearby

Air Quality

  Air Quality AQ Index Pollutant
Not available.

Snow Depth

Station Depth Elevation

Earthquake Activity

City Distance Mag. Time & Date
Minimum magnitude displayed is 2.5.

Coastal Water Temperatures

Place Temperature

Stations

Nearby Weather Stations

Station Location Temp. Windchill Dew Point Humidity Wind Precip. Elev Updated Type